Time;durP1;ratioP1;P1;durP2;ratioP2;P2;SDS_P1;SDS_P2;PMS_P1;PMS_P2;Temp;Humidity;BMP_temperature;BMP_pressure;BME280_temperature;BME280_humidity;BME280_pressure;Samples;Min_cycle;Max_cycle;Signal;HPM_P1;HPM_P2
2022/03/11 00:02:48;;;;;;;0.88;0.57;;;;;;;17.37;24.16;101871.03;10520637;28;20056;-80
2022/03/11 00:07:55;;;;;;;0.20;0.13;;;;;;;17.68;24.14;101866.19;10538664;28;20048;-80
2022/03/11 00:13:00;;;;;;;0.70;0.30;;;;;;;18.02;23.96;101860.53;10537415;28;20117;-80
2022/03/11 00:18:04;;;;;;;0.28;0.22;;;;;;;17.65;24.06;101854.88;10499755;28;20152;-80
2022/03/11 00:23:06;;;;;;;0.08;0.03;;;;;;;18.07;23.73;101846.66;10499946;28;20090;-80
2022/03/11 00:28:08;;;;;;;0.10;0.10;;;;;;;17.87;23.67;101859.44;10477517;28;20127;-80
2022/03/11 00:33:18;;;;;;;1.35;0.45;;;;;;;17.27;24.29;101853.50;10493277;28;20076;-80
2022/03/11 00:38:19;;;;;;;0.32;0.20;;;;;;;17.84;23.86;101858.53;10476774;28;20052;-81
2022/03/11 00:43:21;;;;;;;0.10;0.10;;;;;;;17.86;23.95;101857.72;10494243;28;20403;-81
2022/03/11 00:48:22;;;;;;;0.03;0.03;;;;;;;17.94;23.57;101851.72;10485408;28;20151;-80
2022/03/11 00:53:25;;;;;;;1.85;1.10;;;;;;;17.44;24.48;101857.22;10517132;28;20147;-80
2022/03/11 00:58:26;;;;;;;0.43;0.43;;;;;;;17.53;24.05;101851.25;10533986;28;20058;-80
2022/03/11 01:03:28;;;;;;;0.05;0.05;;;;;;;17.79;23.70;101836.75;10534880;28;20130;-81
2022/03/11 01:08:51;;;;;;;1.38;0.75;;;;;;;17.15;24.79;101840.34;10519926;28;20079;-80
2022/03/11 01:14:11;;;;;;;;;;;;;;;16.94;24.54;101831.38;10520741;28;20044;-80
2022/03/11 01:19:32;;;;;;;0.85;0.77;;;;;;;17.60;23.88;101824.41;10535955;28;19920;-80
2022/03/11 01:24:35;;;;;;;0.90;0.38;;;;;;;17.27;24.39;101827.47;10549868;28;20139;-81
2022/03/11 01:29:36;;;;;;;1.00;0.45;;;;;;;17.08;23.97;101805.53;10535150;28;20036;-81
2022/03/11 01:34:38;;;;;;;0.57;0.57;;;;;;;16.89;24.66;101804.38;10533853;28;20130;-81
2022/03/11 01:39:39;;;;;;;0.20;0.20;;;;;;;17.09;24.47;101809.88;10499856;28;20547;-81
2022/03/11 01:44:41;;;;;;;0.63;0.57;;;;;;;16.59;24.90;101810.88;10515558;28;20105;-80
2022/03/11 01:49:44;;;;;;;2.40;0.77;;;;;;;16.58;25.33;101799.59;10533737;28;20040;-80
2022/03/11 01:54:45;;;;;;;3.05;0.80;;;;;;;16.20;25.73;101791.16;10548716;28;20498;-80
2022/03/11 01:59:47;;;;;;;1.42;1.00;;;;;;;16.63;25.27;101781.47;10515485;28;20085;-81
2022/03/11 02:04:52;;;;;;;0.30;0.30;;;;;;;17.16;24.72;101787.41;10530956;28;20052;-81
2022/03/11 02:09:53;;;;;;;0.00;0.00;;;;;;;17.93;23.93;101775.22;10515204;28;20056;-81
2022/03/11 02:14:55;;;;;;;2.97;1.33;;;;;;;15.93;25.84;101771.66;10515542;28;20078;-82
2022/03/11 02:19:57;;;;;;;2.33;0.75;;;;;;;16.01;25.73;101773.53;10541923;28;20123;-82
2022/03/11 02:24:59;;;;;;;0.75;0.47;;;;;;;16.23;25.68;101765.22;10541292;28;20047;-82
2022/03/11 02:30:02;;;;;;;0.10;0.10;;;;;;;16.76;25.07;101754.75;10523231;28;20535;-81
2022/03/11 02:35:03;;;;;;;0.52;0.52;;;;;;;16.62;25.26;101754.56;10522406;28;20491;-81
2022/03/11 02:40:06;;;;;;;1.10;0.80;;;;;;;16.28;25.50;101737.56;10541617;28;20071;-81
2022/03/11 02:45:08;;;;;;;4.03;1.75;;;;;;;16.00;26.02;101737.13;10522362;28;20093;-82
2022/03/11 02:50:09;;;;;;;0.00;0.00;;;;;;;16.16;26.06;101739.13;10541345;28;20130;-80
2022/03/11 02:55:11;;;;;;;1.60;1.02;;;;;;;15.58;26.74;101727.69;10523698;28;20494;-82
2022/03/11 03:00:13;;;;;;;1.17;0.30;;;;;;;16.73;25.20;101731.28;10522347;28;20397;-81
2022/03/11 03:05:17;;;;;;;0.65;0.40;;;;;;;16.10;25.73;101730.34;10538914;28;20060;-80
2022/03/11 03:10:19;;;;;;;3.40;1.30;;;;;;;16.70;25.46;101726.06;10505106;28;20047;-80
2022/03/11 03:15:21;;;;;;;0.00;0.00;;;;;;;16.55;25.84;101718.91;10521302;28;20486;-81
2022/03/11 03:20:22;;;;;;;4.75;1.30;;;;;;;15.50;27.10;101712.84;10521536;28;20047;-81
2022/03/11 03:25:25;;;;;;;1.65;0.95;;;;;;;15.88;26.20;101709.19;10520799;28;20047;-81
2022/03/11 03:30:26;;;;;;;1.52;0.80;;;;;;;16.05;26.16;101704.28;10536068;28;20639;-81
2022/03/11 03:35:28;;;;;;;0.00;0.00;;;;;;;16.10;26.26;101707.84;10538407;28;20074;-81
2022/03/11 03:40:29;;;;;;;0.77;0.55;;;;;;;15.54;26.76;101712.03;10520798;28;20483;-81
2022/03/11 03:45:31;;;;;;;0.38;0.20;;;;;;;16.34;26.23;101711.69;10519112;28;20098;-81
2022/03/11 03:50:33;;;;;;;1.00;0.55;;;;;;;15.85;26.33;101712.63;10519794;28;20052;-81
2022/03/11 03:55:34;;;;;;;0.25;0.20;;;;;;;15.66;26.89;101705.34;10519074;28;20483;-81
2022/03/11 04:00:36;;;;;;;0.35;0.13;;;;;;;15.55;27.02;101694.75;10536948;28;20089;-81
2022/03/11 04:05:38;;;;;;;0.75;0.75;;;;;;;15.62;27.13;101698.31;10537351;28;20051;-81
2022/03/11 04:10:41;;;;;;;2.25;0.63;;;;;;;15.76;26.74;101691.66;10519482;28;20052;-81
2022/03/11 04:15:42;;;;;;;2.33;0.95;;;;;;;15.37;27.13;101688.38;10537573;28;20147;-81
2022/03/11 04:20:44;;;;;;;1.77;0.47;;;;;;;15.84;26.43;101684.88;10518491;28;20144;-80
2022/03/11 04:25:46;;;;;;;1.88;0.80;;;;;;;15.75;26.85;101694.22;10537041;28;20471;-80
2022/03/11 04:30:48;;;;;;;0.35;0.35;;;;;;;16.00;26.49;101683.44;10536513;28;20123;-81
2022/03/11 04:35:49;;;;;;;2.63;1.63;;;;;;;15.64;26.72;101678.44;10536674;28;20090;-81
2022/03/11 04:40:51;;;;;;;2.72;1.48;;;;;;;15.53;27.13;101673.06;10516882;28;20101;-81
2022/03/11 04:45:53;;;;;;;0.00;0.00;;;;;;;16.44;26.02;101677.13;10534572;28;20048;-80
2022/03/11 04:50:56;;;;;;;0.47;0.35;;;;;;;15.28;27.44;101690.78;10535903;28;20052;-81
2022/03/11 04:55:57;;;;;;;1.00;0.95;;;;;;;16.00;26.90;101679.94;10514878;28;20051;-80
2022/03/11 05:00:59;;;;;;;3.67;1.65;;;;;;;15.28;27.25;101676.94;10517503;28;20078;-81
2022/03/11 05:06:07;;;;;;;2.42;1.33;;;;;;;14.88;28.31;101677.91;10517849;28;20036;-81
2022/03/11 05:11:09;;;;;;;0.57;0.57;;;;;;;14.95;28.20;101678.03;10535916;28;20051;-81
2022/03/11 05:16:11;;;;;;;0.10;0.10;;;;;;;15.70;27.01;101675.97;10534907;28;20483;-81
2022/03/11 05:21:13;;;;;;;0.70;0.70;;;;;;;15.20;27.74;101680.28;10516892;28;20051;-81
2022/03/11 05:26:24;;;;;;;2.05;0.45;;;;;;;15.32;27.36;101670.94;10534760;28;20051;-81
2022/03/11 05:31:28;;;;;;;0.32;0.20;;;;;;;15.21;27.13;101679.44;10533108;28;20277;-80
2022/03/11 05:36:30;;;;;;;1.55;1.02;;;;;;;15.39;27.35;101670.22;10534765;28;20875;-80
2022/03/11 05:41:33;;;;;;;1.60;1.38;;;;;;;14.77;28.08;101671.63;10515603;28;20055;-81
2022/03/11 05:46:35;;;;;;;0.10;0.10;;;;;;;15.38;26.79;101664.16;10516250;28;20064;-80
2022/03/11 05:51:37;;;;;;;1.45;0.95;;;;;;;16.18;25.85;101669.84;10532403;28;20061;-81
2022/03/11 05:56:39;;;;;;;1.20;0.40;;;;;;;15.49;26.77;101661.75;10516551;28;20060;-81
2022/03/11 06:01:41;;;;;;;0.75;0.32;;;;;;;15.16;27.57;101652.50;10515192;28;20044;-81
2022/03/11 06:06:42;;;;;;;0.00;0.00;;;;;;;16.05;25.63;101662.69;10532557;28;20067;-82
2022/03/11 06:11:44;;;;;;;2.10;0.80;;;;;;;15.59;26.65;101652.41;10532991;28;20449;-81
2022/03/11 06:16:45;;;;;;;1.08;0.95;;;;;;;14.67;27.90;101656.72;10533294;28;20076;-81
2022/03/11 06:21:47;;;;;;;6.55;1.10;;;;;;;15.04;27.27;101653.13;10514768;28;20398;-81
2022/03/11 06:26:51;;;;;;;0.65;0.65;;;;;;;15.58;26.49;101652.38;10515133;28;20488;-81
2022/03/11 06:31:52;;;;;;;29.02;0.90;;;;;;;15.71;26.75;101656.94;10514356;28;20481;-81
2022/03/11 06:36:54;;;;;;;0.30;0.30;;;;;;;15.78;26.72;101653.59;10514845;28;20052;-81
2022/03/11 06:41:55;;;;;;;0.45;0.35;;;;;;;16.17;26.10;101651.59;10514551;28;20462;-81
2022/03/11 06:47:04;;;;;;;0.63;0.63;;;;;;;16.17;25.81;101647.28;10514967;28;20115;-81
2022/03/11 06:52:07;;;;;;;0.98;0.90;;;;;;;17.89;24.07;101638.75;10532494;28;20044;-81
2022/03/11 06:57:09;;;;;;;0.40;0.22;;;;;;;17.96;23.80;101647.53;10532676;28;20043;-81
2022/03/11 07:02:16;;;;;;;0.10;0.08;;;;;;;18.47;23.31;101644.38;10516247;28;20051;-81
2022/03/11 07:07:18;;;;;;;0.63;0.63;;;;;;;18.36;23.05;101642.56;10539620;28;20439;-81
2022/03/11 07:12:19;;;;;;;0.10;0.10;;;;;;;18.97;22.89;101627.19;10521046;28;20547;-81
2022/03/11 07:17:21;;;;;;;0.50;0.50;;;;;;;17.92;23.52;101640.50;10521175;28;20047;-81
2022/03/11 07:22:23;;;;;;;3.00;1.75;;;;;;;18.29;22.77;101640.78;10520658;28;20533;-82
2022/03/11 07:27:32;;;;;;;0.03;0.03;;;;;;;18.90;23.00;101636.69;10522776;28;20043;-82
2022/03/11 07:32:36;;;;;;;0.32;0.30;;;;;;;18.22;23.55;101637.28;10520442;28;20551;-81
2022/03/11 07:37:39;;;;;;;0.30;0.22;;;;;;;18.10;23.62;101631.97;10520720;28;20142;-82
2022/03/11 07:42:42;;;;;;;2.08;1.17;;;;;;;17.83;23.68;101632.66;10538272;28;20055;-81
2022/03/11 07:47:45;;;;;;;6.53;5.70;;;;;;;17.77;23.09;101636.94;10520120;28;20055;-82
2022/03/11 07:52:47;;;;;;;3.35;1.70;;;;;;;18.29;23.35;101638.16;10519280;28;20513;-81
2022/03/11 07:57:49;;;;;;;7.88;4.07;;;;;;;18.27;22.57;101629.50;10537317;28;20074;-81
2022/03/11 08:02:50;;;;;;;5.88;2.40;;;;;;;18.50;21.76;101633.94;10517020;28;20082;-81
2022/03/11 08:07:52;;;;;;;4.55;2.10;;;;;;;18.10;22.73;101638.94;10536183;28;20136;-81
2022/03/11 08:12:54;;;;;;;0.20;0.20;;;;;;;19.15;22.15;101628.97;10535077;28;20048;-80
2022/03/11 08:17:55;;;;;;;7.90;4.50;;;;;;;19.30;21.16;101618.53;10517813;28;20051;-80
2022/03/11 08:22:59;;;;;;;4.00;2.13;;;;;;;18.94;21.18;101615.00;10535651;28;20048;-80
2022/03/11 08:28:01;;;;;;;1.75;0.70;;;;;;;19.80;21.23;101613.28;10516834;28;20079;-81
2022/03/11 08:33:04;;;;;;;6.85;3.40;;;;;;;20.43;21.34;101602.69;10515905;28;20082;-81
2022/03/11 08:38:26;;;;;;;17.98;8.25;;;;;;;18.78;22.38;101605.34;10536267;28;20051;-81
2022/03/11 08:43:27;;;;;;;13.52;5.72;;;;;;;19.56;21.12;101615.06;10500592;28;20164;-81
2022/03/11 08:48:29;;;;;;;6.03;2.92;;;;;;;19.99;21.38;101613.31;10517602;28;20064;-81
2022/03/11 08:53:30;;;;;;;9.93;5.75;;;;;;;19.55;21.17;101602.84;10534041;28;20393;-81
2022/03/11 08:58:32;;;;;;;10.73;4.97;;;;;;;20.13;20.73;101595.84;10515718;28;20040;-81
2022/03/11 09:03:33;;;;;;;2.97;1.52;;;;;;;21.13;19.88;101580.53;10516407;28;20556;-80
2022/03/11 09:08:35;;;;;;;8.82;4.82;;;;;;;20.70;20.56;101568.53;10515964;28;20048;-81
2022/03/11 09:13:37;;;;;;;15.65;7.07;;;;;;;19.90;21.08;101577.56;10515604;28;20131;-82
2022/03/11 09:18:39;;;;;;;4.68;2.92;;;;;;;19.52;21.00;101563.66;10516515;28;20048;-80
2022/03/11 09:23:41;;;;;;;2.10;1.38;;;;;;;22.96;18.92;101547.91;10539428;28;20478;-81
2022/03/11 09:28:42;;;;;;;14.15;7.32;;;;;;;20.04;20.65;101554.00;10515723;28;20513;-82
2022/03/11 09:33:44;;;;;;;19.17;7.57;;;;;;;20.36;19.88;101534.72;10535002;28;20097;-83
2022/03/11 09:38:46;;;;;;;5.30;2.78;;;;;;;21.47;19.28;101547.06;10535122;28;20036;-83
2022/03/11 09:43:49;;;;;;;12.90;3.55;;;;;;;22.32;18.78;101532.13;10519361;28;20032;-81
2022/03/11 09:48:51;;;;;;;4.65;2.47;;;;;;;22.69;18.21;101521.16;10517974;28;20048;-81
2022/03/11 09:54:01;;;;;;;9.52;2.58;;;;;;;22.31;18.28;101522.53;10517372;28;20047;-81
2022/03/11 09:59:03;;;;;;;21.33;10.48;;;;;;;21.00;19.46;101516.88;10534542;28;20086;-81
2022/03/11 10:04:06;;;;;;;4.63;2.42;;;;;;;22.25;18.82;101509.50;10516620;28;20064;-82
2022/03/11 10:09:17;;;;;;;6.40;4.05;;;;;;;22.11;18.40;101513.16;10532604;28;20391;-81
2022/03/11 10:14:30;;;;;;;3.47;2.25;;;;;;;22.93;17.79;101505.91;10499740;28;20054;-82
2022/03/11 10:19:31;;;;;;;6.32;2.35;;;;;;;23.33;17.61;101502.66;10498618;28;20053;-81
2022/03/11 10:24:33;;;;;;;6.72;2.63;;;;;;;22.45;18.12;101493.50;10534930;28;20059;-83
2022/03/11 10:29:36;;;;;;;1.20;0.90;;;;;;;23.37;18.22;101485.91;10514649;28;20060;-81
2022/03/11 10:34:37;;;;;;;10.32;5.30;;;;;;;23.34;17.52;101498.25;10533321;28;20131;-81
2022/03/11 10:39:44;;;;;;;2.85;1.63;;;;;;;23.82;17.45;101494.69;10521669;28;20162;-81
2022/03/11 10:45:00;;;;;;;14.45;4.18;;;;;;;24.03;17.52;101491.66;10541634;28;20048;-80
2022/03/11 10:50:08;;;;;;;10.52;2.47;;;;;;;23.33;18.02;101489.50;10523752;28;20047;-80
2022/03/11 10:55:21;;;;;;;13.15;5.45;;;;;;;22.20;18.15;101483.31;10523311;28;20083;-81
2022/03/11 11:00:28;;;;;;;4.07;3.13;;;;;;;23.93;17.27;101466.44;10482680;28;20102;-80
2022/03/11 11:05:31;;;;;;;13.65;7.60;;;;;;;23.64;17.61;101478.41;10514794;28;20044;-82
2022/03/11 11:10:36;;;;;;;11.27;2.92;;;;;;;24.43;17.33;101468.00;10540680;28;20040;-80
2022/03/11 11:15:38;;;;;;;6.80;4.18;;;;;;;24.38;17.02;101461.06;10521179;28;20044;-81
2022/03/11 11:20:40;;;;;;;1.35;1.05;;;;;;;24.97;17.37;101454.41;10521010;28;20048;-80
2022/03/11 11:25:43;;;;;;;5.97;3.33;;;;;;;25.38;17.32;101445.41;10504344;28;20101;-80
2022/03/11 11:30:52;;;;;;;17.45;9.35;;;;;;;22.03;19.31;101454.66;10539391;28;20040;-81
2022/03/11 11:36:03;;;;;;;5.38;3.15;;;;;;;24.43;17.37;101442.50;10540831;28;20051;-80
2022/03/11 11:41:24;;;;;;;4.22;1.55;;;;;;;25.24;17.04;101433.47;10520352;28;20079;-80
2022/03/11 11:46:30;;;;;;;6.25;3.40;;;;;;;25.08;16.54;101416.34;10520119;28;20087;-81
2022/03/11 11:51:31;;;;;;;5.85;4.32;;;;;;;26.40;16.69;101408.13;10495058;28;20064;-80
2022/03/11 11:56:37;;;;;;;6.07;3.88;;;;;;;23.91;17.65;101402.44;10483732;28;20044;-80
2022/03/11 12:01:53;;;;;;;6.45;4.22;;;;;;;24.47;17.61;101396.78;10494511;28;20388;-81
2022/03/11 12:07:02;;;;;;;18.10;8.63;;;;;;;25.77;17.19;101381.91;10493462;28;20377;-79
2022/03/11 12:12:33;;;;;;;4.97;2.43;;;;;;;25.35;17.42;101365.47;10476613;28;20455;-76
2022/03/11 12:17:42;;;;;;;13.02;7.25;;;;;;;23.80;18.30;101367.56;10478441;28;20052;-79
2022/03/11 12:23:12;;;;;;;17.80;3.67;;;;;;;24.48;17.78;101373.91;10496882;28;20390;-77
2022/03/11 12:28:34;;;;;;;11.77;3.05;;;;;;;25.11;17.22;101360.91;10494116;28;20095;-78
2022/03/11 12:33:44;;;;;;;15.57;6.78;;;;;;;24.83;17.89;101362.53;10489875;28;20058;-76
2022/03/11 12:38:47;;;;;;;4.82;2.50;;;;;;;25.69;16.47;101355.72;10494226;28;20076;-78
2022/03/11 12:43:49;;;;;;;12.63;7.95;;;;;;;24.65;17.65;101342.75;10494230;28;20131;-78
2022/03/11 12:48:51;;;;;;;4.97;2.53;;;;;;;25.23;17.24;101323.63;10494730;28;20041;-76
2022/03/11 12:53:54;;;;;;;4.95;3.00;;;;;;;25.09;17.42;101305.59;10475807;28;20098;-77
2022/03/11 12:58:55;;;;;;;7.32;3.80;;;;;;;25.28;17.31;101311.19;10493537;28;20056;-78
2022/03/11 13:03:58;;;;;;;6.43;4.07;;;;;;;25.45;17.46;101305.47;10509732;28;20094;-77
2022/03/11 13:09:01;;;;;;;12.18;3.22;;;;;;;25.25;17.16;101290.19;10471445;28;20119;-81
2022/03/11 13:14:03;;;;;;;6.38;2.70;;;;;;;25.53;17.22;101288.53;10472128;28;20040;-84
2022/03/11 13:19:05;;;;;;;2.15;0.90;;;;;;;26.49;16.40;101278.38;10492630;28;20040;-81
2022/03/11 13:24:07;;;;;;;7.50;3.75;;;;;;;25.22;17.36;101263.06;10474173;28;20084;-82
2022/03/11 13:29:09;;;;;;;7.93;3.85;;;;;;;25.60;18.03;101259.25;10473307;28;20143;-79
2022/03/11 13:34:11;;;;;;;6.03;3.35;;;;;;;25.98;17.03;101259.81;10456045;28;20518;-81
2022/03/11 13:39:17;;;;;;;8.60;3.35;;;;;;;26.89;17.68;101231.16;10482723;28;20090;-81
2022/03/11 13:44:23;;;;;;;6.70;3.35;;;;;;;26.28;17.26;101241.22;10499604;28;20079;-82
2022/03/11 13:49:42;;;;;;;2.88;1.83;;;;;;;26.05;17.02;101235.81;10472313;28;20094;-83
2022/03/11 13:54:49;;;;;;;15.00;6.90;;;;;;;25.93;17.66;101235.34;10511109;28;20036;-80
2022/03/11 13:59:56;;;;;;;5.30;3.92;;;;;;;25.54;17.12;101222.53;10511285;28;20091;-81
2022/03/11 14:05:19;;;;;;;13.70;1.30;;;;;;;27.04;16.92;101224.44;10487444;28;20064;-81
2022/03/11 14:10:24;;;;;;;2.28;0.80;;;;;;;27.50;16.72;101220.03;10500708;28;20048;-81
2022/03/11 14:15:32;;;;;;;2.45;1.75;;;;;;;27.06;16.62;101199.66;10482497;28;20056;-81
2022/03/11 14:20:33;;;;;;;8.35;5.13;;;;;;;25.81;17.04;101209.34;10498998;28;20047;-82
2022/03/11 14:25:35;;;;;;;8.73;4.97;;;;;;;24.95;18.05;101195.28;10541747;28;20056;-80
2022/03/11 14:30:37;;;;;;;1.83;1.23;;;;;;;26.60;16.92;101188.16;10541416;28;20566;-82
2022/03/11 14:35:41;;;;;;;4.28;2.10;;;;;;;26.14;17.30;101188.03;10539674;28;20498;-80
2022/03/11 14:40:42;;;;;;;8.02;4.07;;;;;;;24.69;18.25;101188.16;10513645;28;20361;-83
2022/03/11 14:45:44;;;;;;;2.92;0.95;;;;;;;26.57;16.95;101178.56;10511580;28;20131;-80
2022/03/11 14:51:06;;;;;;;5.28;2.17;;;;;;;26.08;17.25;101181.19;10496189;28;20514;-79
2022/03/11 14:56:09;;;;;;;8.48;2.30;;;;;;;26.36;17.02;101171.41;10496039;28;20090;-80
2022/03/11 15:01:10;;;;;;;2.10;1.25;;;;;;;26.10;16.86;101179.34;10495784;28;20479;-83
2022/03/11 15:06:12;;;;;;;9.73;4.22;;;;;;;25.62;17.37;101188.84;10460412;28;20052;-81
2022/03/11 15:11:14;;;;;;;3.70;2.63;;;;;;;26.08;16.99;101175.06;10496662;28;20037;-80
2022/03/11 15:16:16;;;;;;;11.15;3.20;;;;;;;25.59;17.31;101177.53;10496159;28;20075;-80
2022/03/11 15:21:18;;;;;;;9.43;3.75;;;;;;;26.14;16.56;101159.00;10495615;28;20424;-80
2022/03/11 15:26:23;;;;;;;7.78;2.58;;;;;;;25.51;17.60;101175.13;10477261;28;20489;-79
2022/03/11 15:31:24;;;;;;;2.40;1.27;;;;;;;26.08;17.01;101159.22;10477523;28;20036;-80
2022/03/11 15:36:26;;;;;;;4.30;2.75;;;;;;;25.77;16.79;101161.06;10495529;28;20048;-80
2022/03/11 15:41:27;;;;;;;8.15;4.45;;;;;;;25.10;17.22;101162.31;10474681;28;20517;-80
2022/03/11 15:46:29;;;;;;;4.63;2.08;;;;;;;24.63;17.23;101160.16;10475310;28;20049;-79
2022/03/11 15:51:32;;;;;;;19.25;9.50;;;;;;;25.37;17.21;101166.78;10493437;28;20115;-80
2022/03/11 15:56:33;;;;;;;92.20;34.28;;;;;;;24.15;17.66;101158.00;10476102;28;20052;-80
2022/03/11 16:01:36;;;;;;;30.02;13.45;;;;;;;24.79;17.18;101159.75;10493580;28;20124;-79
2022/03/11 16:06:38;;;;;;;9.60;5.75;;;;;;;24.83;17.08;101156.97;10491622;28;20048;-79
2022/03/11 16:11:46;;;;;;;3.65;2.08;;;;;;;24.73;16.71;101152.03;10490484;28;20045;-79
2022/03/11 16:16:47;;;;;;;4.00;2.33;;;;;;;24.58;16.58;101159.44;10475280;28;20143;-78
2022/03/11 16:21:49;;;;;;;13.82;6.72;;;;;;;23.77;17.22;101164.19;10493624;28;20028;-79
2022/03/11 16:26:50;;;;;;;7.03;4.43;;;;;;;24.45;16.84;101171.25;10492823;28;20048;-79
2022/03/11 16:31:52;;;;;;;3.13;1.95;;;;;;;25.29;16.29;101174.94;10490800;28;20037;-78
2022/03/11 16:37:09;;;;;;;2.30;1.45;;;;;;;24.57;16.62;101178.78;10492422;28;20036;-79
2022/03/11 16:42:10;;;;;;;1.58;0.88;;;;;;;25.10;16.20;101179.91;10492340;28;20072;-78
2022/03/11 16:47:12;;;;;;;6.55;3.35;;;;;;;24.58;16.66;101187.53;10492114;28;20071;-79
2022/03/11 16:52:14;;;;;;;0.85;0.63;;;;;;;25.35;15.93;101191.41;10473815;28;20052;-78
2022/03/11 16:57:16;;;;;;;1.92;1.27;;;;;;;24.57;16.42;101185.84;10492589;28;20052;-78
2022/03/11 17:02:17;;;;;;;0.20;0.15;;;;;;;24.99;16.08;101196.91;10492835;28;20105;-79
2022/03/11 17:07:21;;;;;;;1.75;1.45;;;;;;;24.90;16.26;101197.22;10490726;28;20131;-80
2022/03/11 17:12:23;;;;;;;2.58;1.27;;;;;;;24.89;16.34;101208.66;10490996;28;20048;-80
2022/03/11 17:17:46;;;;;;;1.52;1.10;;;;;;;24.79;16.18;101215.97;10490457;28;20032;-80
2022/03/11 17:22:48;;;;;;;0.30;0.30;;;;;;;25.06;16.33;101229.22;10488889;28;20127;-79
2022/03/11 17:27:49;;;;;;;0.05;0.05;;;;;;;24.42;16.79;101237.16;10475751;28;20441;-80
2022/03/11 17:32:51;;;;;;;0.00;0.00;;;;;;;24.54;16.68;101239.44;10488503;28;20033;-80
2022/03/11 17:37:53;;;;;;;0.17;0.15;;;;;;;24.18;16.83;101231.63;10492586;28;20064;-79
2022/03/11 17:42:54;;;;;;;3.22;2.45;;;;;;;23.95;17.03;101242.75;10471650;28;20055;-80
2022/03/11 17:47:57;;;;;;;2.53;1.52;;;;;;;24.29;16.77;101242.75;10488625;28;20480;-80
2022/03/11 17:52:59;;;;;;;2.20;1.42;;;;;;;23.16;17.71;101247.09;10472325;28;20044;-79
2022/03/11 17:58:01;;;;;;;1.35;0.90;;;;;;;23.66;17.40;101250.38;10472784;28;20063;-79
2022/03/11 18:03:05;;;;;;;5.20;2.88;;;;;;;22.74;18.09;101254.06;10505293;28;20151;-79
2022/03/11 18:08:07;;;;;;;5.45;4.88;;;;;;;23.75;17.32;101260.69;10489935;28;20490;-79
2022/03/11 18:13:09;;;;;;;0.55;0.47;;;;;;;23.79;17.19;101260.63;10469559;28;20122;-79
2022/03/11 18:18:11;;;;;;;1.45;1.30;;;;;;;24.26;16.80;101255.97;10489669;28;20045;-79
2022/03/11 18:23:13;;;;;;;2.95;1.58;;;;;;;22.91;17.75;101260.72;10470382;28;20813;-79
2022/03/11 18:28:15;;;;;;;3.15;2.05;;;;;;;21.77;18.90;101267.06;10493392;28;20068;-79
2022/03/11 18:33:17;;;;;;;2.17;1.45;;;;;;;21.54;18.98;101268.22;10488954;28;20084;-79
2022/03/11 18:38:19;;;;;;;9.35;4.15;;;;;;;21.68;18.93;101275.06;10505078;28;20144;-80
2022/03/11 18:43:47;;;;;;;4.85;2.58;;;;;;;22.36;18.15;101271.34;10469603;28;20095;-80
2022/03/11 18:48:48;;;;;;;21.85;8.57;;;;;;;21.98;18.44;101283.34;10485838;28;20613;-80
2022/03/11 18:53:50;;;;;;;7.90;4.90;;;;;;;21.89;18.25;101287.00;10488078;28;20072;-80
2022/03/11 18:58:54;;;;;;;3.70;1.73;;;;;;;21.82;18.16;101294.06;10474655;28;20116;-79
2022/03/11 19:03:56;;;;;;;3.95;1.13;;;;;;;21.92;18.13;101294.78;10481417;28;20451;-79
2022/03/11 19:08:59;;;;;;;7.10;4.32;;;;;;;21.77;18.15;101293.28;10512026;28;20040;-79
2022/03/11 19:14:01;;;;;;;5.93;2.65;;;;;;;22.22;17.90;101299.59;10495441;28;20079;-79
2022/03/11 19:19:04;;;;;;;8.25;4.30;;;;;;;20.94;18.61;101297.78;10460725;28;20488;-81
2022/03/11 19:24:05;;;;;;;1.35;0.57;;;;;;;21.26;18.40;101298.31;10497069;28;20131;-80
2022/03/11 19:29:08;;;;;;;4.15;2.83;;;;;;;21.16;18.37;101298.41;10495487;28;20052;-79
2022/03/11 19:34:14;;;;;;;0.00;0.00;;;;;;;22.05;17.57;101305.09;10495171;28;20068;-80
2022/03/11 19:39:17;;;;;;;0.75;0.55;;;;;;;21.09;18.61;101302.00;10495682;28;20044;-79
2022/03/11 19:44:18;;;;;;;0.90;0.80;;;;;;;21.03;18.10;101307.31;10495123;28;20040;-79
2022/03/11 19:49:20;;;;;;;3.67;2.15;;;;;;;22.10;17.39;101298.03;10477300;28;20067;-79
2022/03/11 19:54:22;;;;;;;4.72;2.08;;;;;;;20.63;18.17;101302.44;10494963;28;20510;-80
2022/03/11 19:59:24;;;;;;;2.45;1.40;;;;;;;20.85;17.88;101313.63;10510702;28;20534;-79
2022/03/11 20:04:25;;;;;;;2.55;1.27;;;;;;;20.98;17.98;101311.72;10493556;28;20170;-80
2022/03/11 20:09:28;;;;;;;1.08;0.47;;;;;;;21.29;17.45;101316.59;10508107;28;20045;-80
2022/03/11 20:14:30;;;;;;;2.45;1.17;;;;;;;21.89;16.89;101317.59;10492107;28;20407;-79
2022/03/11 20:19:32;;;;;;;8.50;5.22;;;;;;;20.31;18.18;101332.38;10475049;28;20139;-80
2022/03/11 20:24:34;;;;;;;0.70;0.70;;;;;;;21.74;17.18;101322.16;10498421;28;20167;-80
2022/03/11 20:29:35;;;;;;;2.78;1.77;;;;;;;21.41;17.43;101324.31;10475023;28;20156;-80
2022/03/11 20:34:40;;;;;;;3.92;1.52;;;;;;;20.36;18.04;101341.06;10474299;28;20044;-79
2022/03/11 20:39:42;;;;;;;1.65;0.98;;;;;;;21.32;17.14;101329.69;10491826;28;20041;-80
2022/03/11 20:44:44;;;;;;;3.72;2.17;;;;;;;20.48;17.76;101345.34;10475788;28;20094;-79
2022/03/11 20:49:46;;;;;;;0.40;0.40;;;;;;;21.07;17.68;101336.03;10493442;28;20094;-79
2022/03/11 20:54:47;;;;;;;1.45;1.35;;;;;;;20.48;17.87;101346.19;10493191;28;20125;-79
2022/03/11 20:59:49;;;;;;;2.15;1.15;;;;;;;20.58;18.01;101344.38;10493810;28;20374;-80
2022/03/11 21:04:51;;;;;;;0.63;0.60;;;;;;;21.14;17.50;101342.09;10473844;28;20540;-79
2022/03/11 21:09:53;;;;;;;1.67;1.10;;;;;;;20.75;18.07;101333.75;10492359;28;20044;-80
2022/03/11 21:14:54;;;;;;;1.75;0.95;;;;;;;20.94;17.82;101344.94;10491296;28;20440;-81
2022/03/11 21:19:59;;;;;;;1.33;1.23;;;;;;;20.38;18.32;101339.28;10492267;28;20051;-80
2022/03/11 21:25:00;;;;;;;1.10;0.85;;;;;;;20.31;18.41;101340.22;10505446;28;20131;-79
2022/03/11 21:30:07;;;;;;;0.55;0.55;;;;;;;21.06;17.77;101338.69;10524166;28;20450;-79
2022/03/11 21:35:09;;;;;;;2.00;0.93;;;;;;;20.18;18.26;101336.84;10525393;28;20056;-80
2022/03/11 21:40:13;;;;;;;0.43;0.30;;;;;;;19.95;18.38;101335.25;10492511;28;20115;-79
2022/03/11 21:45:14;;;;;;;0.30;0.25;;;;;;;20.34;17.89;101337.59;10491144;28;20059;-79
2022/03/11 21:50:16;;;;;;;1.10;0.77;;;;;;;20.08;18.26;101336.03;10473990;28;20040;-79
2022/03/11 21:55:18;;;;;;;4.13;2.28;;;;;;;19.26;18.73;101329.44;10491256;28;20481;-79
2022/03/11 22:00:22;;;;;;;3.03;1.48;;;;;;;19.24;18.60;101333.81;10474484;28;20056;-79
2022/03/11 22:05:24;;;;;;;1.50;0.22;;;;;;;19.78;18.27;101327.44;10473061;28;20135;-79
2022/03/11 22:10:26;;;;;;;1.25;0.85;;;;;;;19.32;18.45;101329.41;10491789;28;20103;-79
2022/03/11 22:15:27;;;;;;;1.58;1.02;;;;;;;19.11;18.51;101332.09;10491181;28;20102;-79
2022/03/11 22:20:30;;;;;;;0.57;0.35;;;;;;;19.55;17.98;101322.34;10456875;28;20055;-80
2022/03/11 22:25:33;;;;;;;0.43;0.43;;;;;;;20.07;17.75;101329.03;10485786;28;20055;-79
2022/03/11 22:30:35;;;;;;;11.10;0.70;;;;;;;20.02;17.93;101321.25;10531687;28;20040;-79
2022/03/11 22:35:39;;;;;;;3.08;1.00;;;;;;;19.38;17.80;101328.53;10511472;28;20072;-81
2022/03/11 22:40:41;;;;;;;1.92;1.05;;;;;;;19.16;17.86;101323.38;10494050;28;20511;-79
2022/03/11 22:45:49;;;;;;;3.45;1.55;;;;;;;19.10;17.75;101333.00;10506046;28;20040;-81
2022/03/11 22:50:54;;;;;;;3.42;1.92;;;;;;;19.04;17.96;101333.88;10505746;28;20036;-80
2022/03/11 22:55:55;;;;;;;8.75;4.20;;;;;;;18.99;17.52;101332.97;10512690;28;20044;-79
2022/03/11 23:00:57;;;;;;;0.65;0.65;;;;;;;19.22;17.76;101332.94;10503269;28;20564;-79
2022/03/11 23:11:20;;;;;;;0.68;0.60;;;;;;;19.34;17.27;101327.66;10485508;28;20049;-80
2022/03/11 23:16:23;;;;;;;6.22;2.63;;;;;;;18.39;18.04;101329.53;10490034;28;20079;-79
2022/03/11 23:21:25;;;;;;;1.50;0.88;;;;;;;19.08;17.22;101321.66;10483817;28;20370;-80